createdAt,value
2022-08-29T00:01:25.950Z,100495.83
2022-08-29T00:04:00.228Z,100501.44
2022-08-29T00:06:33.297Z,100498.23
2022-08-29T00:09:07.925Z,100500.35
2022-08-29T00:11:43.422Z,100499.16
2022-08-29T00:14:23.304Z,100500.05
2022-08-29T00:16:55.945Z,100500.23
2022-08-29T00:19:32.394Z,100499.00
2022-08-29T00:22:11.260Z,100495.84
2022-08-29T00:24:45.079Z,100495.96
2022-08-29T00:27:17.564Z,100484.95
2022-08-29T00:29:48.361Z,100486.20
2022-08-29T00:32:22.886Z,100486.94
2022-08-29T00:34:54.069Z,100485.80
2022-08-29T00:37:28.270Z,100483.64
2022-08-29T00:40:01.957Z,100487.02
2022-08-29T00:42:38.245Z,100486.27
2022-08-29T00:45:12.305Z,100489.58
2022-08-29T00:47:45.821Z,100485.69
2022-08-29T00:50:17.966Z,100485.60
2022-08-29T00:52:54.313Z,100484.92
2022-08-29T00:55:26.278Z,100480.64
2022-08-29T00:58:04.609Z,100478.21
2022-08-29T01:00:36.140Z,100481.60
2022-08-29T01:03:10.521Z,100482.11
2022-08-29T01:05:43.349Z,100485.21
2022-08-29T01:08:16.691Z,100485.52
2022-08-29T01:11:04.762Z,100484.30
2022-08-29T01:13:37.127Z,100483.98
2022-08-29T01:16:08.183Z,100486.11
2022-08-29T01:18:42.666Z,100485.73
2022-08-29T01:21:15.046Z,100485.21
2022-08-29T01:23:49.523Z,100485.84
2022-08-29T01:26:23.182Z,100484.96
2022-08-29T01:28:55.201Z,100488.18
2022-08-29T01:31:37.384Z,100492.95
2022-08-29T01:34:18.343Z,100489.95
2022-08-29T01:36:53.681Z,100485.79
2022-08-29T01:39:30.364Z,100486.33
2022-08-29T01:42:06.087Z,100482.20
2022-08-29T01:44:37.353Z,100481.98
2022-08-29T01:47:12.506Z,100479.33
2022-08-29T01:49:46.130Z,100482.93
2022-08-29T01:52:18.178Z,100483.73
2022-08-29T01:54:52.307Z,100488.52
2022-08-29T01:57:23.141Z,100487.34
2022-08-29T01:59:54.147Z,100487.80
2022-08-29T02:02:26.125Z,100491.14
2022-08-29T02:04:59.729Z,100490.71
2022-08-29T02:07:31.077Z,100488.99
2022-08-29T02:10:01.897Z,100494.09
2022-08-29T02:12:36.397Z,100495.56
2022-08-29T02:15:11.363Z,100496.20
2022-08-29T02:17:42.299Z,100498.47
2022-08-29T02:20:16.483Z,100495.85
2022-08-29T02:22:49.558Z,100496.50
2022-08-29T02:25:37.522Z,100498.88
2022-08-29T02:28:13.337Z,100498.25
2022-08-29T02:30:45.202Z,100502.38
2022-08-29T02:33:26.636Z,100499.05
2022-08-29T02:36:00.115Z,100507.23
2022-08-29T02:38:38.596Z,100503.67
2022-08-29T02:41:14.036Z,100507.55
2022-08-29T02:43:49.817Z,100507.00
2022-08-29T02:46:22.882Z,100505.08
2022-08-29T02:49:01.654Z,100505.61
2022-08-29T02:51:35.558Z,100506.39
2022-08-29T02:54:11.032Z,100514.23
2022-08-29T02:56:44.504Z,100515.66
2022-08-29T02:59:15.491Z,100513.95
2022-08-29T03:01:49.735Z,100517.53
2022-08-29T03:04:20.577Z,100515.77
2022-08-29T03:06:54.147Z,100518.30
2022-08-29T03:09:28.965Z,100519.87
2022-08-29T03:12:01.678Z,100522.55
2022-08-29T03:14:34.862Z,100529.03
2022-08-29T03:17:09.443Z,100529.30
2022-08-29T03:19:42.069Z,100528.60
2022-08-29T03:22:15.813Z,100532.84
2022-08-29T03:24:48.282Z,100537.36
2022-08-29T03:27:19.613Z,100537.99
2022-08-29T03:29:56.944Z,100540.95
2022-08-29T03:32:28.047Z,100539.63
2022-08-29T03:35:01.545Z,100545.30
2022-08-29T03:37:35.839Z,100544.44
2022-08-29T03:40:07.060Z,100549.38
2022-08-29T03:42:37.912Z,100551.11
2022-08-29T03:45:11.589Z,100556.62
2022-08-29T03:47:46.417Z,100559.69
2022-08-29T03:50:20.302Z,100561.19
2022-08-29T03:52:54.080Z,100562.71
2022-08-29T03:55:26.776Z,100565.41
2022-08-29T03:58:02.503Z,100570.59
2022-08-29T04:00:36.452Z,100569.30
2022-08-29T04:03:08.308Z,100579.06
2022-08-29T04:05:43.627Z,100581.96
2022-08-29T04:08:17.155Z,100580.41
2022-08-29T04:10:50.071Z,100580.56
2022-08-29T04:13:22.081Z,100585.27
2022-08-29T04:15:56.328Z,100585.27
2022-08-29T04:18:34.053Z,100589.16
2022-08-29T04:21:08.184Z,100589.39
2022-08-29T04:23:42.103Z,100594.35
2022-08-29T04:26:35.519Z,100599.99
2022-08-29T04:29:07.290Z,100601.14
2022-08-29T04:31:41.125Z,100602.69
2022-08-29T04:34:12.804Z,100605.40
2022-08-29T04:36:45.418Z,100608.11
2022-08-29T04:39:16.575Z,100605.70
2022-08-29T04:41:49.615Z,100607.27
2022-08-29T04:44:22.889Z,100609.30
2022-08-29T04:47:01.760Z,100606.88
2022-08-29T04:49:34.131Z,100608.95
2022-08-29T04:52:11.776Z,100613.90
2022-08-29T04:54:45.758Z,100614.56
2022-08-29T04:57:18.355Z,100618.58
2022-08-29T04:59:54.220Z,100617.89
2022-08-29T05:02:26.195Z,100619.84
2022-08-29T05:04:56.943Z,100625.37
2022-08-29T05:07:31.264Z,100625.09
2022-08-29T05:10:07.745Z,100625.95
2022-08-29T05:12:40.786Z,100624.13
2022-08-29T05:15:16.851Z,100622.92
2022-08-29T05:17:49.732Z,100622.36
2022-08-29T05:20:23.121Z,100619.48
2022-08-29T05:22:53.852Z,100621.70
2022-08-29T05:25:28.119Z,100622.82
2022-08-29T05:27:59.575Z,100620.86
2022-08-29T05:30:35.075Z,100622.05
2022-08-29T05:33:08.915Z,100619.17
2022-08-29T05:35:42.254Z,100619.91
2022-08-29T05:38:13.734Z,100618.77
2022-08-29T05:40:44.559Z,100614.83
2022-08-29T05:43:17.723Z,100618.63
2022-08-29T05:45:51.426Z,100616.58
2022-08-29T05:48:22.607Z,100614.44
2022-08-29T05:50:55.953Z,100618.69
2022-08-29T05:53:27.940Z,100618.24
2022-08-29T05:55:59.691Z,100618.80
2022-08-29T05:58:35.041Z,100617.00
2022-08-29T06:01:05.994Z,100616.91
2022-08-29T06:03:45.852Z,100612.85
2022-08-29T06:06:18.952Z,100614.34
2022-08-29T06:08:51.385Z,100616.45
2022-08-29T06:11:28.167Z,100612.53
2022-08-29T06:14:02.320Z,100612.94
2022-08-29T06:16:33.727Z,100614.14
2022-08-29T06:19:04.435Z,100613.27
2022-08-29T06:21:36.133Z,100615.39
2022-08-29T06:24:08.817Z,100613.04
2022-08-29T06:26:44.686Z,100616.36
2022-08-29T06:29:16.784Z,100616.33
2022-08-29T06:31:50.033Z,100618.42
2022-08-29T06:34:21.830Z,100618.88
2022-08-29T06:36:57.644Z,100617.98
2022-08-29T06:39:30.936Z,100619.40
2022-08-29T06:42:05.242Z,100621.20
2022-08-29T06:44:36.087Z,100623.40
2022-08-29T06:47:10.593Z,100621.28
2022-08-29T06:49:42.533Z,100624.65
2022-08-29T06:52:15.703Z,100623.45
2022-08-29T06:54:48.113Z,100625.30
2022-08-29T06:57:18.926Z,100628.24
2022-08-29T06:59:49.614Z,100627.78
2022-08-29T07:02:26.583Z,100627.58
2022-08-29T07:05:00.973Z,100629.50
2022-08-29T07:07:33.550Z,100632.49
2022-08-29T07:10:10.135Z,100631.36
2022-08-29T07:12:44.786Z,100633.48
2022-08-29T07:15:18.544Z,100632.72
2022-08-29T07:17:50.929Z,100629.59
2022-08-29T07:20:21.752Z,100628.82
2022-08-29T07:22:54.685Z,100630.23
2022-08-29T07:25:29.443Z,100628.31
2022-08-29T07:28:00.331Z,100632.31
2022-08-29T07:30:36.206Z,100631.48
2022-08-29T07:33:09.635Z,100630.13
2022-08-29T07:35:43.865Z,100632.60
2022-08-29T07:38:14.877Z,100631.20
2022-08-29T07:40:45.745Z,100635.53
2022-08-29T07:43:20.477Z,100633.77
2022-08-29T07:45:54.340Z,100632.19
2022-08-29T07:48:25.833Z,100630.29
2022-08-29T07:50:58.177Z,100629.83
2022-08-29T07:53:28.940Z,100627.62
2022-08-29T07:56:00.926Z,100628.98
2022-08-29T07:58:34.098Z,100626.19
2022-08-29T08:01:07.756Z,100626.20
2022-08-29T08:03:42.899Z,100625.84
2022-08-29T08:06:13.772Z,100624.59
2022-08-29T08:08:44.921Z,100627.91
2022-08-29T08:11:15.848Z,100623.48
2022-08-29T08:13:52.830Z,100622.18
2022-08-29T08:16:24.357Z,100619.82
2022-08-29T08:18:55.304Z,100617.73
2022-08-29T08:21:26.550Z,100618.09
2022-08-29T08:23:58.697Z,100618.38
2022-08-29T08:26:29.539Z,100621.20
2022-08-29T08:29:03.472Z,100623.23
2022-08-29T08:31:36.257Z,100626.48
2022-08-29T08:34:10.205Z,100630.05
2022-08-29T08:36:43.040Z,100626.06
2022-08-29T08:39:13.927Z,100624.16
2022-08-29T08:41:53.649Z,100623.60
2022-08-29T08:44:51.623Z,100623.63
2022-08-29T08:47:26.622Z,100621.79
2022-08-29T08:49:58.488Z,100618.80
2022-08-29T08:52:32.688Z,100617.10
2022-08-29T08:55:06.834Z,100617.14
2022-08-29T08:57:42.643Z,100616.03
2022-08-29T09:00:14.552Z,100617.47
2022-08-29T09:02:49.300Z,100617.73
2022-08-29T09:05:25.448Z,100615.71
2022-08-29T09:08:03.065Z,100616.88
2022-08-29T09:10:36.090Z,100617.04
2022-08-29T09:13:11.846Z,100616.30
2022-08-29T09:15:46.450Z,100612.98
2022-08-29T09:18:24.128Z,100609.44
2022-08-29T09:20:57.211Z,100609.88
2022-08-29T09:23:32.541Z,100610.26
2022-08-29T09:26:03.474Z,100612.16
2022-08-29T09:28:35.042Z,100607.53
2022-08-29T09:31:26.018Z,100611.42
2022-08-29T09:34:00.241Z,100609.83
2022-08-29T09:36:39.644Z,100612.92
2022-08-29T09:39:18.079Z,100609.73
2022-08-29T09:41:53.141Z,100612.34
2022-08-29T09:44:27.926Z,100609.80
2022-08-29T09:47:13.185Z,100608.83
2022-08-29T09:49:47.071Z,100607.48
2022-08-29T09:52:25.682Z,100606.55
2022-08-29T09:54:57.905Z,100607.58
2022-08-29T09:57:33.282Z,100602.73
2022-08-29T10:00:14.065Z,100605.46
2022-08-29T10:02:51.052Z,100606.45
2022-08-29T10:05:41.601Z,100602.80
2022-08-29T10:08:26.219Z,100602.95
2022-08-29T10:10:58.232Z,100600.38
2022-08-29T10:13:34.265Z,100601.95
2022-08-29T10:16:08.785Z,100604.61
2022-08-29T10:18:43.148Z,100602.84
2022-08-29T10:21:20.468Z,100605.44
2022-08-29T10:24:07.825Z,100600.41
2022-08-29T10:26:42.822Z,100598.21
2022-08-29T10:29:20.951Z,100601.05
2022-08-29T10:31:53.085Z,100599.29
2022-08-29T10:34:32.206Z,100597.59
2022-08-29T10:37:03.728Z,100599.73
2022-08-29T10:39:38.928Z,100595.65
2022-08-29T10:42:11.369Z,100597.73
2022-08-29T10:44:51.941Z,100596.91
2022-08-29T10:47:26.323Z,100592.86
2022-08-29T10:50:03.334Z,100589.79
2022-08-29T10:52:37.658Z,100586.12
2022-08-29T10:55:11.656Z,100582.11
2022-08-29T10:57:56.286Z,100581.11
2022-08-29T11:00:31.425Z,100580.55
2022-08-29T11:03:09.524Z,100576.65
2022-08-29T11:05:42.462Z,100574.41
2022-08-29T11:08:16.426Z,100573.34
2022-08-29T11:10:50.174Z,100574.36
2022-08-29T11:13:23.405Z,100572.15
2022-08-29T11:16:02.559Z,100569.90
2022-08-29T11:18:36.625Z,100567.90
2022-08-29T11:21:25.523Z,100562.67
2022-08-29T11:24:01.174Z,100557.64
2022-08-29T11:26:42.128Z,100553.33
2022-08-29T11:29:16.362Z,100551.41
2022-08-29T11:31:50.332Z,100546.48
2022-08-29T11:34:29.523Z,100542.45
2022-08-29T11:37:08.717Z,100540.77
2022-08-29T11:40:00.581Z,100543.36
2022-08-29T11:45:29.666Z,100545.60
2022-08-29T11:48:20.724Z,100547.14
2022-08-29T11:50:51.769Z,100541.73
2022-08-29T11:53:34.094Z,100543.14
2022-08-29T11:56:27.833Z,100537.08
2022-08-29T11:59:02.025Z,100535.88
2022-08-29T12:01:52.355Z,100537.86
2022-08-29T12:04:36.595Z,100531.14
2022-08-29T12:07:07.530Z,100527.43
2022-08-29T12:09:44.451Z,100526.09
2022-08-29T12:12:45.694Z,100520.67
2022-08-29T12:15:42.095Z,100518.24
2022-08-29T12:18:36.729Z,100514.78
2022-08-29T12:21:21.482Z,100510.53
2022-08-29T12:23:52.247Z,100512.11
2022-08-29T12:26:36.487Z,100508.30
2022-08-29T12:29:10.559Z,100508.59
2022-08-29T12:32:08.704Z,100504.64
2022-08-29T12:34:42.917Z,100500.36
2022-08-29T12:37:37.115Z,100497.28
2022-08-29T12:40:22.850Z,100498.92
2022-08-29T12:43:04.179Z,100496.38
2022-08-29T12:45:37.305Z,100494.35
2022-08-29T12:48:09.772Z,100494.09
2022-08-29T12:50:45.465Z,100489.58
2022-08-29T12:53:19.901Z,100490.13
2022-08-29T12:55:51.163Z,100487.36
2022-08-29T12:58:38.230Z,100485.55
2022-08-29T13:01:22.480Z,100484.19
2022-08-29T13:04:03.715Z,100484.29
2022-08-29T13:06:37.629Z,100475.48
2022-08-29T13:09:11.568Z,100474.49
2022-08-29T13:11:50.508Z,100475.04
2022-08-29T13:14:25.166Z,100478.81
2022-08-29T13:16:55.985Z,100477.87
2022-08-29T13:19:29.264Z,100472.95
2022-08-29T13:22:05.256Z,100473.09
2022-08-29T13:24:37.787Z,100469.05
2022-08-29T13:27:10.420Z,100464.66
2022-08-29T13:29:42.430Z,100462.88
2022-08-29T13:32:24.155Z,100459.85
2022-08-29T13:35:06.564Z,100462.36
2022-08-29T13:37:45.649Z,100459.58
2022-08-29T13:40:35.008Z,100461.11
2022-08-29T13:43:15.168Z,100456.52
2022-08-29T13:45:45.906Z,100456.50
2022-08-29T13:48:23.191Z,100453.35
2022-08-29T13:50:56.044Z,100452.23
2022-08-29T13:53:31.087Z,100446.05
2022-08-29T13:56:03.968Z,100442.20
2022-08-29T13:58:37.576Z,100443.70
2022-08-29T14:04:27.137Z,100441.19
2022-08-29T14:06:52.829Z,100439.05
2022-08-29T14:09:24.375Z,100438.42
2022-08-29T14:11:57.120Z,100433.46
2022-08-29T14:14:34.322Z,100429.52
2022-08-29T14:17:07.522Z,100429.20
2022-08-29T14:19:38.852Z,100429.05
2022-08-29T14:22:09.769Z,100426.30
2022-08-29T14:24:40.784Z,100417.16
2022-08-29T14:27:15.345Z,100417.52
2022-08-29T14:29:47.880Z,100415.86
2022-08-29T14:32:18.761Z,100416.67
2022-08-29T14:34:52.633Z,100417.22
2022-08-29T14:37:24.289Z,100415.96
2022-08-29T14:39:59.161Z,100419.42
2022-08-29T14:42:30.159Z,100415.24
2022-08-29T14:45:08.147Z,100416.79
2022-08-29T14:47:41.828Z,100416.16
2022-08-29T14:50:14.607Z,100412.58
2022-08-29T14:52:46.484Z,100405.15
2022-08-29T14:55:18.395Z,100407.48
2022-08-29T14:57:50.765Z,100408.42
2022-08-29T15:00:28.004Z,100404.20
2022-08-29T15:03:01.683Z,100399.55
2022-08-29T15:05:34.088Z,100401.20
2022-08-29T15:08:06.782Z,100397.63
2022-08-29T15:10:38.203Z,100394.95
2022-08-29T15:13:09.107Z,100391.14
2022-08-29T15:15:44.351Z,100391.10
2022-08-29T15:18:48.115Z,100386.60
2022-08-29T15:21:11.521Z,100384.69
2022-08-29T15:23:48.149Z,100384.36
2022-08-29T15:26:21.835Z,100381.65
2022-08-29T15:28:57.092Z,100376.11
2022-08-29T15:31:30.054Z,100381.39
2022-08-29T15:34:00.870Z,100379.26
2022-08-29T15:36:33.937Z,100379.20
2022-08-29T15:39:06.132Z,100377.58
2022-08-29T15:41:41.016Z,100379.06
2022-08-29T15:44:12.856Z,100379.16
2022-08-29T15:46:50.780Z,100384.14
2022-08-29T15:49:25.793Z,100380.77
2022-08-29T15:51:56.663Z,100386.27
2022-08-29T15:54:28.683Z,100386.73
2022-08-29T15:56:59.640Z,100393.50
2022-08-29T15:59:56.692Z,100390.94
2022-08-29T16:02:26.432Z,100392.04
2022-08-29T16:05:02.448Z,100395.77
2022-08-29T16:07:35.401Z,100394.95
2022-08-29T16:10:11.165Z,100395.17
2022-08-29T16:12:45.085Z,100399.40
2022-08-29T16:15:20.605Z,100400.41
2022-08-29T16:17:58.743Z,100398.85
2022-08-29T16:20:32.892Z,100398.89
2022-08-29T16:23:11.429Z,100405.88
2022-08-29T16:25:48.669Z,100406.27
2022-08-29T16:28:19.912Z,100409.61
2022-08-29T16:30:52.154Z,100408.66
2022-08-29T16:33:22.850Z,100403.92
2022-08-29T16:35:56.325Z,100408.96
2022-08-29T16:38:28.379Z,100404.77
2022-08-29T16:41:02.453Z,100406.16
2022-08-29T16:43:33.413Z,100409.00
2022-08-29T16:46:11.041Z,100413.13
2022-08-29T16:48:45.309Z,100416.21
2022-08-29T16:51:21.208Z,100422.11
2022-08-29T16:53:58.986Z,100424.31
2022-08-29T16:56:33.558Z,100423.44
2022-08-29T16:59:09.615Z,100421.95
2022-08-29T17:01:43.328Z,100425.42
2022-08-29T17:04:16.048Z,100424.95
2022-08-29T17:06:48.281Z,100429.30
2022-08-29T17:09:18.222Z,100430.11
2022-08-29T17:11:48.405Z,100433.11
2022-08-29T17:14:17.925Z,100435.80
2022-08-29T17:16:49.742Z,100434.73
2022-08-29T17:19:21.106Z,100440.17
2022-08-29T17:21:56.245Z,100441.48
2022-08-29T17:24:27.167Z,100443.77
2022-08-29T17:26:59.072Z,100445.91
2022-08-29T17:29:37.467Z,100451.60
2022-08-29T17:32:11.166Z,100453.42
2022-08-29T17:34:48.939Z,100459.19
2022-08-29T17:37:24.211Z,100458.60
2022-08-29T17:39:57.407Z,100465.29
2022-08-29T17:42:36.528Z,100468.99
2022-08-29T17:45:11.471Z,100469.69
2022-08-29T17:47:45.109Z,100472.92
2022-08-29T17:50:20.467Z,100475.08
2022-08-29T17:52:51.484Z,100476.66
2022-08-29T17:55:22.335Z,100478.95
2022-08-29T17:57:54.687Z,100481.88
2022-08-29T18:00:27.068Z,100485.91
2022-08-29T18:02:58.997Z,100486.23
2022-08-29T18:05:31.092Z,100489.13
2022-08-29T18:08:01.924Z,100492.92
2022-08-29T18:10:37.457Z,100492.81
2022-08-29T18:13:09.491Z,100491.32
2022-08-29T18:15:46.577Z,100492.78
2022-08-29T18:18:22.485Z,100488.08
2022-08-29T18:20:56.780Z,100491.27
2022-08-29T18:23:27.578Z,100494.77
2022-08-29T18:26:02.125Z,100495.98
2022-08-29T18:28:39.428Z,100496.86
2022-08-29T18:31:18.664Z,100492.39
2022-08-29T18:34:04.894Z,100494.56
2022-08-29T18:36:36.963Z,100497.43
2022-08-29T18:39:20.020Z,100502.81
2022-08-29T18:41:56.163Z,100505.87
2022-08-29T18:44:32.304Z,100504.73
2022-08-29T18:47:11.281Z,100502.55
2022-08-29T18:49:59.556Z,100501.92
2022-08-29T18:52:36.650Z,100504.20
2022-08-29T18:55:15.733Z,100502.64
2022-08-29T18:57:53.687Z,100507.70
2022-08-29T19:00:51.843Z,100515.48
2022-08-29T19:03:24.622Z,100516.30
2022-08-29T19:05:58.323Z,100514.73
2022-08-29T19:08:37.579Z,100514.63
2022-08-29T19:11:11.270Z,100515.28
2022-08-29T19:13:45.328Z,100512.39
2022-08-29T19:16:21.910Z,100509.02
2022-08-29T19:18:53.846Z,100511.01
2022-08-29T19:21:28.267Z,100509.45
2022-08-29T19:23:59.716Z,100511.57
2022-08-29T19:26:43.818Z,100507.39
2022-08-29T19:29:17.097Z,100508.65
2022-08-29T19:32:00.054Z,100506.16
2022-08-29T19:34:31.336Z,100508.77
2022-08-29T19:37:25.105Z,100511.60
2022-08-29T19:39:58.668Z,100514.42
2022-08-29T19:42:40.649Z,100515.06
2022-08-29T19:45:25.722Z,100515.73
2022-08-29T19:48:02.482Z,100517.84
2022-08-29T19:50:38.019Z,100525.03
2022-08-29T19:53:26.021Z,100524.08
2022-08-29T19:56:04.670Z,100524.02
2022-08-29T19:58:46.137Z,100523.38
2022-08-29T20:01:24.041Z,100522.96
2022-08-29T20:03:59.978Z,100521.98
2022-08-29T20:06:41.021Z,100523.40
2022-08-29T20:09:25.966Z,100520.59
2022-08-29T20:11:58.458Z,100524.87
2022-08-29T20:14:52.812Z,100530.05
2022-08-29T20:17:41.069Z,100532.67
2022-08-29T20:20:19.214Z,100534.66
2022-08-29T20:22:57.880Z,100529.36
2022-08-29T20:25:29.262Z,100530.98
2022-08-29T20:28:03.052Z,100530.77
2022-08-29T20:30:46.564Z,100532.89
2022-08-29T20:33:23.388Z,100535.30
2022-08-29T20:36:14.039Z,100526.64
2022-08-29T20:38:46.030Z,100529.94
2022-08-29T20:41:25.949Z,100526.69
2022-08-29T20:43:57.079Z,100525.52
2022-08-29T20:46:29.713Z,100523.48
2022-08-29T20:49:02.353Z,100520.38
2022-08-29T20:51:40.691Z,100520.59
2022-08-29T20:54:12.156Z,100522.32
2022-08-29T20:56:47.498Z,100521.84
2022-08-29T20:59:26.515Z,100530.57
2022-08-29T21:01:58.608Z,100526.25
2022-08-29T21:04:50.323Z,100524.27
2022-08-29T21:07:24.314Z,100532.05
2022-08-29T21:09:56.116Z,100529.09
2022-08-29T21:12:29.558Z,100535.42
2022-08-29T21:15:02.520Z,100535.42
2022-08-29T21:17:37.716Z,100537.38
2022-08-29T21:20:15.871Z,100538.85
2022-08-29T21:22:48.154Z,100541.08
2022-08-29T21:25:21.736Z,100536.47
2022-08-29T21:27:54.314Z,100541.14
2022-08-29T21:30:30.697Z,100535.88
2022-08-29T21:33:04.353Z,100533.60
2022-08-29T21:35:41.104Z,100536.11
2022-08-29T21:38:30.028Z,100541.15
2022-08-29T21:41:04.780Z,100550.56
2022-08-29T21:43:38.200Z,100553.97
2022-08-29T21:46:19.534Z,100555.95
2022-08-29T21:48:57.447Z,100555.59
2022-08-29T21:51:30.017Z,100554.45
2022-08-29T21:54:04.671Z,100558.04
2022-08-29T21:56:38.173Z,100559.34
2022-08-29T21:59:13.898Z,100560.54
2022-08-29T22:01:48.992Z,100562.13
2022-08-29T22:04:29.367Z,100561.54
2022-08-29T22:07:05.587Z,100557.80
2022-08-29T22:09:38.279Z,100559.95
2022-08-29T22:12:12.311Z,100556.21
2022-08-29T22:15:03.460Z,100551.98
2022-08-29T22:17:44.966Z,100551.06
2022-08-29T22:20:15.903Z,100554.66
2022-08-29T22:22:52.983Z,100554.81
2022-08-29T22:25:31.902Z,100557.05
2022-08-29T22:28:03.878Z,100556.86
2022-08-29T22:30:43.302Z,100555.89
2022-08-29T22:33:21.464Z,100557.73
2022-08-29T22:36:00.257Z,100556.29
2022-08-29T22:38:34.183Z,100550.94
2022-08-29T22:41:24.249Z,100554.70
2022-08-29T22:44:37.701Z,100553.31
2022-08-29T22:46:59.298Z,100557.23
2022-08-29T22:49:33.480Z,100550.86
2022-08-29T22:52:05.678Z,100553.92
2022-08-29T22:54:43.561Z,100553.96
2022-08-29T22:57:19.251Z,100562.08
2022-08-29T22:59:57.207Z,100562.21
2022-08-29T23:02:37.377Z,100558.92
2022-08-29T23:05:12.680Z,100563.90
2022-08-29T23:07:45.195Z,100559.41
2022-08-29T23:10:20.465Z,100554.06
2022-08-29T23:12:57.163Z,100552.83
2022-08-29T23:15:28.463Z,100555.05
2022-08-29T23:17:59.208Z,100552.84
2022-08-29T23:20:35.858Z,100552.60
2022-08-29T23:23:13.022Z,100551.70
2022-08-29T23:25:46.760Z,100552.10
2022-08-29T23:28:20.030Z,100551.52
2022-08-29T23:30:59.603Z,100555.01
2022-08-29T23:33:30.638Z,100550.25
2022-08-29T23:36:03.516Z,100547.39
2022-08-29T23:38:38.033Z,100541.60
2022-08-29T23:41:09.125Z,100543.25
2022-08-29T23:43:47.190Z,100548.77
2022-08-29T23:46:18.340Z,100547.11
2022-08-29T23:48:54.365Z,100548.08
2022-08-29T23:51:25.517Z,100543.81
2022-08-29T23:53:58.817Z,100544.27
2022-08-29T23:56:32.221Z,100547.67
2022-08-29T23:59:03.134Z,100544.75
